createdAt,value
2022-12-11T00:00:25.766Z,13.52
2022-12-11T00:02:53.583Z,14.52
2022-12-11T00:05:21.154Z,15.52
2022-12-11T00:07:48.773Z,14.80
2022-12-11T00:10:17.794Z,15.13
2022-12-11T00:12:47.078Z,15.27
2022-12-11T00:15:14.879Z,18.02
2022-12-11T00:17:43.974Z,17.38
2022-12-11T00:20:12.721Z,16.25
2022-12-11T00:22:41.500Z,17.55
2022-12-11T00:25:10.233Z,16.52
2022-12-11T00:27:38.021Z,15.70
2022-12-11T00:30:08.888Z,16.63
2022-12-11T00:32:37.818Z,14.57
2022-12-11T00:35:06.156Z,14.80
2022-12-11T00:37:34.384Z,15.40
2022-12-11T00:40:02.115Z,14.50
2022-12-11T00:42:29.776Z,14.00
2022-12-11T00:44:57.803Z,15.85
2022-12-11T00:47:27.068Z,14.07
2022-12-11T00:49:54.911Z,14.13
2022-12-11T00:52:22.585Z,14.85
2022-12-11T00:54:50.165Z,16.02
2022-12-11T00:57:17.865Z,15.75
2022-12-11T00:59:45.576Z,16.13
2022-12-11T01:02:13.294Z,15.43
2022-12-11T01:04:42.425Z,14.07
2022-12-11T01:07:10.057Z,15.55
2022-12-11T01:09:55.652Z,15.20
2022-12-11T01:12:23.391Z,14.82
2022-12-11T01:14:50.954Z,13.23
2022-12-11T01:17:18.536Z,15.50
2022-12-11T01:19:47.946Z,14.90
2022-12-11T01:22:15.690Z,13.93
2022-12-11T01:24:43.552Z,16.15
2022-12-11T01:27:12.353Z,15.50
2022-12-11T01:29:40.172Z,15.45
2022-12-11T01:32:07.957Z,16.65
2022-12-11T01:34:35.618Z,16.17
2022-12-11T01:37:04.578Z,16.17
2022-12-11T01:39:32.117Z,14.75
2022-12-11T01:42:00.409Z,16.13
2022-12-11T01:45:05.381Z,14.63
2022-12-11T01:47:33.203Z,15.82
2022-12-11T01:50:01.001Z,17.63
2022-12-11T01:52:30.717Z,16.65
2022-12-11T01:54:58.630Z,17.52
2022-12-11T01:57:26.448Z,18.10
2022-12-11T01:59:54.249Z,15.63
2022-12-11T02:02:25.798Z,16.98
2022-12-11T02:04:53.431Z,15.48
2022-12-11T02:07:21.374Z,17.35
2022-12-11T02:09:51.084Z,18.23
2022-12-11T02:12:25.787Z,17.70
2022-12-11T02:15:00.917Z,17.00
2022-12-11T02:17:37.023Z,17.58
2022-12-11T02:20:12.180Z,16.13
2022-12-11T02:23:07.999Z,19.17
2022-12-11T02:25:46.865Z,16.67
2022-12-11T02:28:20.927Z,17.80
2022-12-11T02:30:52.390Z,16.40
2022-12-11T02:33:24.735Z,17.25
2022-12-11T02:35:52.942Z,18.27
2022-12-11T02:38:24.888Z,19.48
2022-12-11T02:40:54.818Z,19.15
2022-12-11T02:43:25.376Z,18.27
2022-12-11T02:45:55.170Z,17.55
2022-12-11T02:48:25.137Z,19.30
2022-12-11T02:50:59.002Z,17.85
2022-12-11T02:53:29.887Z,18.20
2022-12-11T02:56:03.284Z,17.20
2022-12-11T02:58:34.749Z,18.58
2022-12-11T03:01:02.615Z,16.60
2022-12-11T03:03:31.609Z,18.25
2022-12-11T03:05:59.358Z,17.00
2022-12-11T03:08:27.187Z,17.92
2022-12-11T03:10:54.757Z,15.82
2022-12-11T03:13:23.890Z,17.27
2022-12-11T03:16:03.378Z,17.83
2022-12-11T03:18:37.385Z,19.00
2022-12-11T03:21:13.764Z,17.92
2022-12-11T03:23:47.897Z,19.02
2022-12-11T03:26:18.425Z,20.23
2022-12-11T03:28:50.047Z,18.27
2022-12-11T03:31:31.384Z,17.73
2022-12-11T03:34:04.549Z,19.15
2022-12-11T03:36:35.717Z,17.80
2022-12-11T03:39:08.855Z,18.20
2022-12-11T03:41:39.446Z,17.67
2022-12-11T03:44:08.090Z,17.52
2022-12-11T03:46:40.959Z,18.30
2022-12-11T03:49:11.892Z,18.17
2022-12-11T03:51:40.465Z,18.23
2022-12-11T03:54:09.119Z,18.02
2022-12-11T03:56:40.008Z,16.42
2022-12-11T03:59:07.598Z,16.40
2022-12-11T04:01:36.231Z,17.83
2022-12-11T04:04:05.586Z,17.73
2022-12-11T04:06:33.238Z,18.23
2022-12-11T04:09:00.826Z,18.15
2022-12-11T04:11:37.154Z,16.95
2022-12-11T04:14:21.197Z,16.15
2022-12-11T04:16:48.848Z,17.40
2022-12-11T04:19:36.077Z,17.77
2022-12-11T04:22:21.062Z,16.85
2022-12-11T04:24:49.217Z,17.50
2022-12-11T04:27:37.290Z,16.80
2022-12-11T04:30:07.072Z,16.20
2022-12-11T04:32:34.807Z,17.08
2022-12-11T04:35:04.028Z,16.75
2022-12-11T04:37:31.661Z,16.88
2022-12-11T04:39:59.597Z,17.75
2022-12-11T04:42:27.216Z,17.17
2022-12-11T04:44:54.824Z,17.85
2022-12-11T04:47:22.437Z,15.93
2022-12-11T04:49:50.006Z,16.55
2022-12-11T04:52:19.583Z,17.83
2022-12-11T04:54:47.292Z,18.05
2022-12-11T04:57:14.916Z,16.60
2022-12-11T04:59:42.641Z,16.60
2022-12-11T05:02:10.215Z,16.23
2022-12-11T05:04:38.066Z,15.27
2022-12-11T05:07:05.827Z,15.07
2022-12-11T05:09:35.316Z,15.52
2022-12-11T05:12:03.194Z,14.73
2022-12-11T05:14:32.064Z,14.95
2022-12-11T05:17:00.032Z,15.38
2022-12-11T05:19:28.927Z,14.68
2022-12-11T05:21:57.575Z,15.57
2022-12-11T05:24:26.307Z,14.82
2022-12-11T05:26:55.349Z,15.68
2022-12-11T05:29:23.011Z,14.90
2022-12-11T05:31:51.396Z,14.13
2022-12-11T05:34:19.201Z,15.70
2022-12-11T05:36:47.214Z,13.48
2022-12-11T05:39:15.087Z,13.32
2022-12-11T05:41:42.812Z,12.52
2022-12-11T05:44:13.518Z,11.82
2022-12-11T05:46:41.889Z,11.35
2022-12-11T05:49:11.343Z,11.70
2022-12-11T05:51:39.620Z,11.32
2022-12-11T05:54:07.471Z,13.05
2022-12-11T05:56:36.289Z,11.38
2022-12-11T05:59:06.452Z,12.00
2022-12-11T06:01:38.037Z,12.90
2022-12-11T06:04:07.785Z,12.38
2022-12-11T06:06:38.437Z,10.98
2022-12-11T06:09:06.531Z,10.95
2022-12-11T06:11:35.259Z,11.77
2022-12-11T06:14:03.927Z,11.07
2022-12-11T06:16:32.226Z,10.55
2022-12-11T06:19:02.381Z,11.73
2022-12-11T06:21:32.067Z,10.98
2022-12-11T06:24:00.988Z,11.20
2022-12-11T06:26:29.666Z,12.10
2022-12-11T06:28:57.350Z,11.82
2022-12-11T06:31:25.133Z,10.27
2022-12-11T06:33:52.791Z,11.60
2022-12-11T06:36:23.934Z,11.13
2022-12-11T06:38:51.942Z,10.82
2022-12-11T06:41:20.150Z,10.82
2022-12-11T06:43:48.415Z,11.63
2022-12-11T06:46:18.755Z,10.77
2022-12-11T06:48:47.049Z,10.77
2022-12-11T06:51:16.824Z,11.05
2022-12-11T06:53:46.652Z,9.95
2022-12-11T06:56:16.062Z,11.15
2022-12-11T06:58:44.639Z,11.20
2022-12-11T07:01:18.796Z,10.95
2022-12-11T07:03:47.102Z,10.90
2022-12-11T07:06:15.301Z,11.20
2022-12-11T07:08:43.946Z,11.40
2022-12-11T07:11:14.515Z,11.07
2022-12-11T07:13:43.046Z,10.70
2022-12-11T07:16:12.282Z,11.73
2022-12-11T07:18:40.644Z,11.32
2022-12-11T07:21:10.599Z,10.93
2022-12-11T07:23:38.405Z,11.80
2022-12-11T07:26:07.807Z,11.13
2022-12-11T07:28:37.582Z,10.95
2022-12-11T07:31:09.491Z,10.80
2022-12-11T07:33:37.484Z,10.88
2022-12-11T07:36:07.464Z,12.23
2022-12-11T07:38:37.189Z,11.50
2022-12-11T07:41:05.480Z,11.52
2022-12-11T07:43:33.869Z,13.38
2022-12-11T07:46:07.221Z,11.88
2022-12-11T07:48:36.187Z,10.30
2022-12-11T07:51:11.005Z,11.70
2022-12-11T07:53:38.878Z,10.57
2022-12-11T07:56:07.268Z,11.02
2022-12-11T07:58:34.937Z,12.13
2022-12-11T08:01:04.059Z,10.77
2022-12-11T08:03:31.687Z,11.60
2022-12-11T08:05:59.272Z,10.15
2022-12-11T08:08:27.910Z,10.23
2022-12-11T08:10:55.501Z,10.35
2022-12-11T08:13:23.451Z,10.68
2022-12-11T08:15:51.477Z,10.45
2022-12-11T08:18:20.565Z,10.15
2022-12-11T08:20:48.277Z,10.60
2022-12-11T08:23:15.815Z,10.25
2022-12-11T08:25:43.478Z,11.77
2022-12-11T08:28:11.000Z,11.20
2022-12-11T08:30:40.159Z,11.20
2022-12-11T08:33:07.972Z,10.82
2022-12-11T08:35:40.389Z,9.88
2022-12-11T08:38:08.124Z,11.43
2022-12-11T08:40:35.847Z,10.52
2022-12-11T08:43:03.393Z,9.32
2022-12-11T08:45:31.004Z,11.35
2022-12-11T08:47:59.371Z,10.77
2022-12-11T08:50:27.118Z,11.20
2022-12-11T08:52:57.488Z,11.68
2022-12-11T08:55:25.455Z,10.75
2022-12-11T08:57:52.999Z,11.80
2022-12-11T09:00:20.918Z,11.43
2022-12-11T09:02:49.296Z,11.43
2022-12-11T09:05:17.981Z,11.32
2022-12-11T09:07:45.797Z,10.80
2022-12-11T09:10:14.909Z,11.27
2022-12-11T09:12:42.848Z,10.90
2022-12-11T09:15:11.565Z,11.65
2022-12-11T09:17:39.234Z,11.80
2022-12-11T09:20:07.888Z,11.77
2022-12-11T09:22:35.647Z,10.70
2022-12-11T09:25:03.487Z,11.50
2022-12-11T09:27:32.523Z,10.32
2022-12-11T09:30:00.206Z,12.10
2022-12-11T09:32:28.084Z,10.77
2022-12-11T09:34:55.787Z,11.48
2022-12-11T09:37:23.515Z,11.32
2022-12-11T09:39:54.128Z,10.95
2022-12-11T09:42:35.455Z,13.32
2022-12-11T09:45:06.974Z,10.45
2022-12-11T09:47:37.841Z,11.52
2022-12-11T09:50:16.650Z,11.10
2022-12-11T09:52:55.936Z,10.68
2022-12-11T09:55:25.570Z,11.90
2022-12-11T09:58:02.118Z,11.32
2022-12-11T10:00:39.008Z,11.00
2022-12-11T10:03:50.269Z,9.40
2022-12-11T10:06:25.135Z,10.85
2022-12-11T10:09:01.650Z,9.68
2022-12-11T10:11:44.424Z,10.85
2022-12-11T10:14:20.720Z,10.48
2022-12-11T10:16:52.958Z,11.40
2022-12-11T10:19:23.072Z,10.95
2022-12-11T10:21:52.807Z,12.50
2022-12-11T10:24:57.826Z,11.40
2022-12-11T10:27:21.143Z,11.93
2022-12-11T10:29:52.607Z,11.27
2022-12-11T10:32:25.338Z,11.48
2022-12-11T10:35:00.303Z,9.98
2022-12-11T10:37:28.101Z,10.48
2022-12-11T10:39:55.747Z,11.35
2022-12-11T10:42:24.425Z,11.65
2022-12-11T10:45:00.418Z,11.57
2022-12-11T10:47:30.160Z,11.85
2022-12-11T10:50:00.165Z,11.68
2022-12-11T10:52:31.654Z,10.60
2022-12-11T10:55:02.673Z,11.40
2022-12-11T10:57:33.557Z,10.15
2022-12-11T11:00:04.311Z,10.27
2022-12-11T11:02:38.801Z,13.00
2022-12-11T11:05:14.956Z,10.17
2022-12-11T11:07:42.888Z,11.23
2022-12-11T11:10:18.498Z,10.55
2022-12-11T11:12:48.280Z,11.90
2022-12-11T11:15:19.408Z,10.35
2022-12-11T11:17:55.369Z,10.95
2022-12-11T11:20:26.680Z,10.80
2022-12-11T11:22:56.243Z,11.80
2022-12-11T11:25:26.330Z,11.90
2022-12-11T11:27:56.121Z,10.57
2022-12-11T11:30:26.017Z,11.20
2022-12-11T11:32:57.436Z,12.02
2022-12-11T11:35:27.305Z,11.90
2022-12-11T11:38:03.098Z,11.15
2022-12-11T11:40:34.258Z,10.82
2022-12-11T11:43:13.663Z,9.32
2022-12-11T11:45:47.859Z,8.82
2022-12-11T11:48:29.514Z,9.23
2022-12-11T11:50:58.426Z,10.07
2022-12-11T11:53:31.445Z,8.30
2022-12-11T11:56:06.904Z,9.15
2022-12-11T12:01:17.227Z,9.98
2022-12-11T12:03:48.454Z,8.15
2022-12-11T12:06:27.039Z,9.52
2022-12-11T12:09:03.543Z,8.48
2022-12-11T12:11:39.030Z,8.50
2022-12-11T12:14:43.654Z,8.75
2022-12-11T12:17:15.246Z,9.20
2022-12-11T12:19:51.248Z,8.82
2022-12-11T12:22:51.032Z,9.73
2022-12-11T12:25:25.549Z,8.73
2022-12-11T12:28:01.190Z,8.50
2022-12-11T12:30:33.300Z,8.25
2022-12-11T12:33:15.814Z,9.77
2022-12-11T12:35:52.447Z,8.65
2022-12-11T12:38:24.569Z,9.30
2022-12-11T12:41:03.780Z,9.38
2022-12-11T12:43:44.985Z,7.85
2022-12-11T12:46:23.057Z,8.88
2022-12-11T12:48:53.362Z,9.65
2022-12-11T12:51:22.689Z,9.85
2022-12-11T12:53:55.577Z,10.15
2022-12-11T12:56:25.337Z,11.23
2022-12-11T12:58:53.245Z,9.73
2022-12-11T13:01:23.867Z,10.63
2022-12-11T13:03:55.775Z,9.98
2022-12-11T13:06:34.050Z,10.75
2022-12-11T13:09:14.481Z,10.25
2022-12-11T13:11:42.794Z,12.05
2022-12-11T13:14:29.195Z,12.43
2022-12-11T13:17:26.454Z,11.07
2022-12-11T13:20:14.913Z,11.27
2022-12-11T13:22:54.680Z,12.80
2022-12-11T13:25:27.079Z,11.85
2022-12-11T13:28:05.482Z,11.70
2022-12-11T13:30:34.500Z,11.18
2022-12-11T13:33:06.016Z,10.82
2022-12-11T13:35:35.223Z,10.75
2022-12-11T13:38:08.814Z,9.73
2022-12-11T13:40:41.073Z,10.40
2022-12-11T13:43:18.259Z,10.63
2022-12-11T13:45:49.992Z,9.98
2022-12-11T13:48:24.811Z,11.40
2022-12-11T13:50:54.489Z,9.13
2022-12-11T13:53:24.314Z,9.82
2022-12-11T13:55:59.053Z,11.20
2022-12-11T13:58:27.135Z,10.10
2022-12-11T14:01:14.084Z,10.85
2022-12-11T14:03:44.471Z,10.52
2022-12-11T14:06:18.582Z,9.45
2022-12-11T14:08:51.065Z,10.33
2022-12-11T14:11:24.840Z,11.05
2022-12-11T14:13:52.544Z,10.48
2022-12-11T14:16:22.039Z,9.82
2022-12-11T14:18:52.031Z,9.82
2022-12-11T14:21:21.164Z,10.70
2022-12-11T14:23:55.739Z,10.27
2022-12-11T14:26:25.842Z,10.05
2022-12-11T14:28:54.323Z,11.00
2022-12-11T14:31:29.679Z,12.30
2022-12-11T14:36:33.003Z,10.80
2022-12-11T14:39:07.210Z,9.73
2022-12-11T14:41:43.832Z,10.38
2022-12-11T14:44:15.880Z,10.90
2022-12-11T14:46:47.307Z,10.10
2022-12-11T14:49:22.144Z,9.48
2022-12-11T14:51:51.694Z,11.35
2022-12-11T14:54:26.385Z,10.93
2022-12-11T14:56:55.406Z,10.93
2022-12-11T14:59:30.102Z,11.20
2022-12-11T15:02:01.525Z,11.70
2022-12-11T15:04:32.050Z,11.57
2022-12-11T15:07:00.450Z,10.65
2022-12-11T15:09:37.094Z,10.68
2022-12-11T15:12:12.344Z,10.82
2022-12-11T15:14:47.979Z,10.10
2022-12-11T15:17:16.495Z,11.90
2022-12-11T15:19:51.298Z,12.40
2022-12-11T15:22:20.741Z,12.13
2022-12-11T15:24:52.625Z,11.50
2022-12-11T15:27:26.928Z,10.05
2022-12-11T15:29:54.708Z,11.32
2022-12-11T15:32:22.697Z,13.93
2022-12-11T15:34:52.965Z,11.93
2022-12-11T15:37:22.884Z,12.15
2022-12-11T15:39:52.575Z,11.40
2022-12-11T15:42:25.504Z,11.65
2022-12-11T15:44:53.517Z,13.70
2022-12-11T15:47:23.410Z,12.45
2022-12-11T15:49:51.025Z,12.00
2022-12-11T15:52:18.539Z,13.23
2022-12-11T15:54:46.025Z,12.35
2022-12-11T15:57:18.772Z,13.77
2022-12-11T15:59:48.694Z,13.98
2022-12-11T16:02:16.810Z,13.88
2022-12-11T16:04:44.686Z,13.43
2022-12-11T16:07:17.567Z,12.50
2022-12-11T16:09:45.536Z,12.90
2022-12-11T16:12:14.980Z,13.27
2022-12-11T16:14:42.921Z,13.70
2022-12-11T16:17:11.684Z,12.02
2022-12-11T16:19:40.369Z,12.18
2022-12-11T16:22:09.519Z,12.13
2022-12-11T16:24:37.299Z,13.45
2022-12-11T16:27:05.930Z,13.05
2022-12-11T16:29:36.814Z,13.05
2022-12-11T16:32:06.933Z,11.32
2022-12-11T16:34:34.933Z,12.88
2022-12-11T16:37:03.196Z,12.88
2022-12-11T16:39:30.665Z,18.20
2022-12-11T16:41:58.186Z,21.77
2022-12-11T16:44:27.484Z,18.85
2022-12-11T16:46:56.713Z,15.38
2022-12-11T16:49:24.288Z,11.80
2022-12-11T16:51:52.122Z,13.13
2022-12-11T16:54:19.992Z,13.35
2022-12-11T16:56:47.524Z,15.48
2022-12-11T16:59:15.237Z,14.02
2022-12-11T17:01:42.923Z,13.68
2022-12-11T17:04:11.900Z,12.25
2022-12-11T17:06:39.324Z,13.75
2022-12-11T17:09:07.138Z,14.45
2022-12-11T17:11:34.988Z,14.82
2022-12-11T17:14:02.497Z,16.17
2022-12-11T17:16:30.477Z,14.60
2022-12-11T17:18:58.930Z,12.75
2022-12-11T17:21:27.757Z,13.10
2022-12-11T17:23:55.209Z,13.90
2022-12-11T17:26:23.724Z,13.48
2022-12-11T17:28:51.979Z,14.85
2022-12-11T17:31:20.627Z,13.32
2022-12-11T17:33:49.525Z,12.05
2022-12-11T17:36:20.328Z,16.85
2022-12-11T17:38:49.982Z,13.02
2022-12-11T17:41:20.758Z,14.93
2022-12-11T17:43:49.145Z,17.10
2022-12-11T17:46:17.997Z,20.38
2022-12-11T17:48:45.742Z,24.30
2022-12-11T17:51:21.153Z,20.33
2022-12-11T17:56:18.450Z,19.00
2022-12-11T17:58:45.986Z,16.17
2022-12-11T18:01:14.029Z,15.82
2022-12-11T18:03:57.476Z,15.10
2022-12-11T18:06:47.761Z,15.57
2022-12-11T18:09:16.669Z,15.57
2022-12-11T18:11:44.257Z,15.88
2022-12-11T18:14:16.961Z,17.17
2022-12-11T18:16:45.359Z,17.48
2022-12-11T18:19:13.162Z,16.42
2022-12-11T18:21:43.740Z,16.73
2022-12-11T18:24:11.776Z,14.70
2022-12-11T18:26:42.623Z,15.57
2022-12-11T18:29:10.830Z,16.42
2022-12-11T18:31:42.343Z,16.73
2022-12-11T18:34:11.210Z,15.55
2022-12-11T18:36:40.807Z,16.13
2022-12-11T18:39:08.436Z,15.88
2022-12-11T18:41:36.011Z,18.08
2022-12-11T18:44:09.544Z,15.85
2022-12-11T18:46:37.649Z,17.33
2022-12-11T18:49:05.204Z,17.25
2022-12-11T18:51:32.857Z,17.38
2022-12-11T18:54:00.345Z,15.98
2022-12-11T18:56:28.039Z,16.88
2022-12-11T18:58:55.806Z,18.55
2022-12-11T19:01:27.017Z,18.90
2022-12-11T19:04:00.609Z,21.60
2022-12-11T19:06:33.023Z,22.85
2022-12-11T19:09:01.298Z,18.92
2022-12-11T19:11:30.937Z,19.40
2022-12-11T19:13:58.583Z,19.15
2022-12-11T19:16:30.472Z,19.17
2022-12-11T19:18:58.665Z,19.17
2022-12-11T19:21:27.141Z,21.02
2022-12-11T19:23:54.959Z,17.65
2022-12-11T19:26:24.293Z,18.10
2022-12-11T19:28:52.617Z,18.02
2022-12-11T19:31:22.543Z,18.88
2022-12-11T19:33:51.906Z,18.13
2022-12-11T19:36:21.598Z,16.25
2022-12-11T19:38:49.924Z,19.67
2022-12-11T19:41:20.701Z,20.40
2022-12-11T19:43:48.956Z,19.75
2022-12-11T19:46:17.228Z,18.88
2022-12-11T19:48:45.387Z,19.88
2022-12-11T19:51:16.196Z,17.85
2022-12-11T19:53:45.021Z,16.67
2022-12-11T19:56:13.792Z,17.98
2022-12-11T19:58:42.190Z,17.38
2022-12-11T20:01:10.751Z,14.35
2022-12-11T20:03:38.748Z,17.45
2022-12-11T20:06:08.633Z,17.17
2022-12-11T20:08:46.039Z,18.10
2022-12-11T20:11:18.594Z,17.80
2022-12-11T20:13:46.991Z,17.38
2022-12-11T20:16:15.689Z,19.27
2022-12-11T20:18:43.536Z,20.85
2022-12-11T20:21:14.436Z,17.88
2022-12-11T20:23:44.311Z,18.83
2022-12-11T20:26:14.202Z,17.17
2022-12-11T20:28:42.630Z,18.00
2022-12-11T20:31:19.539Z,17.77
2022-12-11T20:33:48.633Z,18.05
2022-12-11T20:36:17.785Z,17.30
2022-12-11T20:38:46.817Z,17.85
2022-12-11T20:41:16.052Z,18.15
2022-12-11T20:43:44.471Z,16.75
2022-12-11T20:46:14.627Z,18.38
2022-12-11T20:48:43.926Z,18.60
2022-12-11T20:51:13.565Z,19.35
2022-12-11T20:53:42.236Z,18.42
2022-12-11T20:56:13.321Z,18.48
2022-12-11T20:58:41.527Z,18.75
2022-12-11T21:01:14.938Z,19.13
2022-12-11T21:03:42.934Z,18.85
2022-12-11T21:06:10.629Z,19.92
2022-12-11T21:08:38.451Z,18.92
2022-12-11T21:11:07.308Z,19.42
2022-12-11T21:13:37.301Z,19.25
2022-12-11T21:16:06.714Z,17.08
2022-12-11T21:18:36.477Z,19.20
2022-12-11T21:21:05.317Z,18.05
2022-12-11T21:23:33.782Z,18.55
2022-12-11T21:26:01.694Z,18.75
2022-12-11T21:28:34.971Z,17.33
2022-12-11T21:31:06.162Z,18.17
2022-12-11T21:33:34.470Z,17.50
2022-12-11T21:36:03.404Z,18.75
2022-12-11T21:38:31.776Z,17.92
2022-12-11T21:40:59.949Z,19.42
2022-12-11T21:43:27.626Z,18.17
2022-12-11T21:46:02.655Z,18.52
2022-12-11T21:48:32.176Z,16.63
2022-12-11T21:51:07.359Z,17.45
2022-12-11T21:53:35.387Z,18.35
2022-12-11T21:56:07.196Z,17.67
2022-12-11T21:58:34.858Z,19.00
2022-12-11T22:01:02.504Z,18.17
2022-12-11T22:03:31.664Z,17.95
2022-12-11T22:05:59.431Z,18.60
2022-12-11T22:08:27.185Z,19.52
2022-12-11T22:10:55.669Z,20.25
2022-12-11T22:13:23.422Z,18.08
2022-12-11T22:15:52.157Z,19.17
2022-12-11T22:18:20.169Z,18.45
2022-12-11T22:20:49.223Z,19.15
2022-12-11T22:23:16.758Z,18.27
2022-12-11T22:25:44.467Z,19.80
2022-12-11T22:28:12.067Z,16.80
2022-12-11T22:30:40.588Z,18.38
2022-12-11T22:33:08.988Z,17.88
2022-12-11T22:35:38.383Z,17.40
2022-12-11T22:38:07.619Z,17.50
2022-12-11T22:40:35.461Z,17.92
2022-12-11T22:43:02.967Z,17.20
2022-12-11T22:45:30.438Z,18.10
2022-12-11T22:47:58.113Z,16.98
2022-12-11T22:50:25.764Z,17.88
2022-12-11T22:52:53.430Z,16.95
2022-12-11T22:55:22.245Z,18.50
2022-12-11T22:57:50.101Z,16.85
2022-12-11T23:00:18.189Z,17.73
2022-12-11T23:02:46.379Z,17.35
2022-12-11T23:05:14.450Z,18.98
2022-12-11T23:07:42.292Z,17.30
2022-12-11T23:10:11.200Z,17.00
2022-12-11T23:12:40.230Z,17.42
2022-12-11T23:15:09.121Z,18.23
2022-12-11T23:17:36.852Z,17.67
2022-12-11T23:20:05.737Z,20.05
2022-12-11T23:22:34.090Z,16.65
2022-12-11T23:25:02.116Z,17.20
2022-12-11T23:27:30.236Z,17.60
2022-12-11T23:29:59.088Z,19.02
2022-12-11T23:32:26.684Z,18.42
2022-12-11T23:34:54.157Z,19.13
2022-12-11T23:37:21.750Z,18.00
2022-12-11T23:39:49.407Z,18.55
2022-12-11T23:42:16.868Z,17.42
2022-12-11T23:44:44.339Z,17.65
2022-12-11T23:47:13.241Z,17.75
2022-12-11T23:49:40.698Z,18.45
2022-12-11T23:52:08.697Z,18.20
2022-12-11T23:54:36.294Z,17.75
2022-12-11T23:57:03.790Z,17.77
2022-12-11T23:59:31.219Z,18.40
